Boston, MA (02101)

5:53 PM EDT on September 02, 2015 (GMT -0400)
North End waterfront Boston | | Change Station
CLOSE
Current Station
Personal Weather Station
Location: Boston, MA
Elevation: 39 ft
Nearby Weather Stations

Elev 39 ft 42.37 °N, 71.05 °W | Updated 8 seconds ago

Clear
Clear
89.6 °F
Feels Like 88 °F
N
2.7
Wind Variable Wind from SSW
Gusts 4.9 mph

Today
High -- | Low -- °F
--% Chance of Precip.
Yesterday
High -- | Low -- °F
Precip. -- in
6:10 AM 7:16 PM
Waning Gibbous, 77% visible
Pressure 29.87 in
Visibility 10.0 miles
Clouds Clear
Heat Index 88 °F
Dew Point 56 °F
Humidity 32%
Rainfall 0.00 in
Snow Depth Not available.
UV 1.0 out of 12
Pollen 10.40 out of 12
Air Quality Not available.
Flu Activity Not available.
METAR KBOS 022054Z 25009KT 10SM CLR 32/16 A2987 RMK AO2 SLP114 T03220156 58015
Pressure 29.87 in
Visibility 10.0 miles
Clouds Clear
Heat Index 88 °F
Dew Point 56 °F
Humidity 32%
Rainfall 0.00 in
Snow Depth Not available.
UV 1.0 out of 12
Pollen 10.40 out of 12
Air Quality Not available.
Flu Activity Not available.
METAR KBOS 022054Z 25009KT 10SM CLR 32/16 A2987 RMK AO2 SLP114 T03220156 58015

10-Day Weather Forecast

×

Almanac

Astronomy

Sep. 02, 2015 Rise Set
Actual Time
Civil Twilight
Nautical Twilight
Astronomical Twilight
Moon
Length of Visible Light
Length of Day
Tomorrow will be .
, % of the Moon is Illuminated

Today's Extremes

State Highs State Lows

Community

WunderPhotos

Upload Photos

1,851,818 photos uploaded!

WunderBlogs® & News

Nearby

Air Quality

  Air Quality AQ Index Pollutant
Not available.

Snow Depth

Station Depth Elevation

Earthquake Activity

City Distance Mag. Time & Date
Minimum magnitude displayed is 2.5.

Coastal Water Temperatures

Place Temperature

Stations

Nearby Weather Stations

Station Location Temp. Windchill Dew Point Humidity Wind Precip. Elev Updated Type